createdAt,value
2023-04-01T00:00:18.080Z,10.40
2023-04-01T00:01:18.111Z,10.40
2023-04-01T00:02:18.050Z,10.30
2023-04-01T00:03:18.126Z,10.33
2023-04-01T00:04:17.957Z,10.30
2023-04-01T00:05:17.912Z,10.34
2023-04-01T00:06:17.887Z,10.28
2023-04-01T00:07:17.904Z,10.31
2023-04-01T00:08:17.839Z,10.33
2023-04-01T00:09:17.776Z,10.35
2023-04-01T00:10:17.737Z,10.33
2023-04-01T00:11:17.728Z,10.33
2023-04-01T00:12:17.746Z,10.30
2023-04-01T00:13:17.669Z,10.31
2023-04-01T00:14:17.604Z,10.28
2023-04-01T00:15:17.576Z,10.34
2023-04-01T00:16:22.243Z,10.26
2023-04-01T00:17:17.519Z,10.31
2023-04-01T00:18:17.536Z,10.34
2023-04-01T00:19:17.457Z,10.30
2023-04-01T00:20:17.433Z,10.30
2023-04-01T00:21:17.378Z,10.38
2023-04-01T00:22:17.342Z,10.38
2023-04-01T00:23:17.322Z,10.38
2023-04-01T00:24:17.340Z,10.35
2023-04-01T00:25:17.287Z,10.34
2023-04-01T00:26:17.213Z,10.26
2023-04-01T00:27:17.229Z,10.31
2023-04-01T00:28:17.160Z,10.31
2023-04-01T00:29:17.123Z,10.33
2023-04-01T00:30:17.149Z,10.33
2023-04-01T00:31:17.182Z,10.26
2023-04-01T00:32:17.025Z,10.28
2023-04-01T00:33:16.982Z,10.31
2023-04-01T00:34:16.957Z,10.34
2023-04-01T00:35:16.980Z,10.30
2023-04-01T00:36:16.948Z,10.30
2023-04-01T00:37:16.908Z,10.26
2023-04-01T00:38:16.820Z,10.34
2023-04-01T00:39:16.800Z,10.31
2023-04-01T00:40:16.757Z,10.30
2023-04-01T00:41:17.007Z,10.31
2023-04-01T00:42:16.741Z,10.31
2023-04-01T00:43:16.732Z,10.28
2023-04-01T00:44:16.631Z,10.35
2023-04-01T00:45:16.599Z,10.34
2023-04-01T00:46:16.628Z,10.34
2023-04-01T00:47:16.526Z,10.30
2023-04-01T00:48:16.558Z,10.33
2023-04-01T00:49:16.477Z,10.46
2023-04-01T00:50:16.432Z,10.34
2023-04-01T00:51:16.394Z,10.30
2023-04-01T00:52:16.377Z,10.31
2023-04-01T00:53:16.333Z,10.23
2023-04-01T00:54:16.344Z,10.26
2023-04-01T00:55:16.283Z,10.40
2023-04-01T00:56:16.258Z,10.28
2023-04-01T00:57:16.216Z,10.35
2023-04-01T00:58:16.235Z,10.35
2023-04-01T00:59:16.187Z,10.38
2023-04-01T01:00:16.107Z,10.35
2023-04-01T01:01:16.083Z,10.37
2023-04-01T01:02:16.126Z,10.28
2023-04-01T01:03:16.023Z,10.30
2023-04-01T01:04:15.989Z,10.28
2023-04-01T01:05:16.023Z,10.31
2023-04-01T01:06:15.895Z,10.31
2023-04-01T01:07:15.862Z,10.22
2023-04-01T01:08:15.835Z,10.19
2023-04-01T01:09:15.798Z,10.13
2023-04-01T01:10:15.762Z,10.16
2023-04-01T01:11:15.802Z,10.20
2023-04-01T01:12:15.706Z,10.16
2023-04-01T01:13:15.672Z,10.19
2023-04-01T01:14:15.645Z,10.20
2023-04-01T01:15:15.592Z,10.13
2023-04-01T01:16:21.463Z,10.16
2023-04-01T01:17:15.589Z,10.15
2023-04-01T01:18:15.504Z,10.13
2023-04-01T01:19:15.470Z,10.12
2023-04-01T01:20:25.417Z,10.17
2023-04-01T01:21:15.409Z,10.19
2023-04-01T01:22:15.378Z,10.31
2023-04-01T01:23:15.331Z,10.31
2023-04-01T01:24:15.298Z,10.25
2023-04-01T01:25:15.277Z,10.33
2023-04-01T01:26:15.313Z,10.26
2023-04-01T01:27:15.210Z,10.26
2023-04-01T01:28:15.204Z,10.30
2023-04-01T01:29:15.165Z,10.28
2023-04-01T01:30:15.138Z,10.30
2023-04-01T01:31:15.205Z,10.30
2023-04-01T01:32:15.151Z,10.28
2023-04-01T01:33:15.116Z,10.33
2023-04-01T01:34:14.988Z,10.26
2023-04-01T01:35:15.127Z,10.30
2023-04-01T01:36:14.947Z,10.37
2023-04-01T01:37:14.921Z,10.26
2023-04-01T01:38:14.845Z,10.28
2023-04-01T01:39:14.811Z,10.23
2023-04-01T01:40:14.777Z,10.25
2023-04-01T01:41:14.743Z,10.30
2023-04-01T01:42:14.699Z,10.23
2023-04-01T01:43:14.748Z,10.26
2023-04-01T01:44:14.635Z,10.26
2023-04-01T01:45:14.615Z,10.37
2023-04-01T01:46:14.729Z,10.28
2023-04-01T01:47:22.595Z,10.37
2023-04-01T01:48:14.507Z,10.25
2023-04-01T01:49:14.542Z,10.34
2023-04-01T01:50:14.450Z,10.30
2023-04-01T01:51:14.416Z,10.34
2023-04-01T01:52:14.374Z,10.35
2023-04-01T01:53:14.345Z,10.34
2023-04-01T01:54:14.305Z,10.40
2023-04-01T01:55:14.328Z,10.46
2023-04-01T01:56:14.236Z,10.44
2023-04-01T01:57:14.241Z,10.44
2023-04-01T01:58:14.184Z,10.46
2023-04-01T01:59:14.147Z,10.41
2023-04-01T02:00:14.111Z,10.42
2023-04-01T02:01:14.162Z,10.44
2023-04-01T02:02:14.051Z,10.42
2023-04-01T02:03:14.006Z,10.38
2023-04-01T02:04:14.008Z,10.41
2023-04-01T02:05:13.937Z,10.42
2023-04-01T02:06:13.913Z,10.41
2023-04-01T02:07:13.933Z,10.46
2023-04-01T02:08:13.845Z,10.46
2023-04-01T02:09:13.803Z,10.35
2023-04-01T02:10:13.782Z,10.40
2023-04-01T02:11:13.736Z,10.44
2023-04-01T02:12:13.716Z,10.48
2023-04-01T02:13:13.745Z,10.46
2023-04-01T02:14:13.648Z,10.54
2023-04-01T02:15:13.622Z,10.54
2023-04-01T02:16:13.628Z,10.54
2023-04-01T02:17:13.557Z,10.49
2023-04-01T02:18:13.509Z,10.51
2023-04-01T02:19:13.540Z,10.54
2023-04-01T02:20:13.443Z,10.48
2023-04-01T02:21:13.427Z,10.54
2023-04-01T02:22:13.383Z,10.59
2023-04-01T02:23:13.340Z,10.63
2023-04-01T02:24:13.324Z,10.53
2023-04-01T02:25:13.358Z,10.67
2023-04-01T02:26:13.281Z,10.68
2023-04-01T02:27:13.216Z,10.60
2023-04-01T02:28:13.179Z,10.54
2023-04-01T02:29:13.157Z,10.64
2023-04-01T02:30:13.118Z,10.56
2023-04-01T02:31:13.153Z,10.57
2023-04-01T02:32:13.046Z,10.54
2023-04-01T02:33:13.028Z,10.59
2023-04-01T02:34:12.973Z,10.59
2023-04-01T02:35:12.952Z,10.57
2023-04-01T02:36:13.019Z,10.51
2023-04-01T02:37:12.891Z,10.68
2023-04-01T02:38:12.844Z,10.57
2023-04-01T02:39:12.833Z,10.48
2023-04-01T02:40:12.787Z,10.49
2023-04-01T02:41:12.751Z,10.64
2023-04-01T02:42:12.791Z,10.54
2023-04-01T02:43:12.689Z,10.71
2023-04-01T02:44:12.673Z,10.63
2023-04-01T02:45:12.642Z,10.60
2023-04-01T02:46:12.603Z,10.64
2023-04-01T02:47:12.642Z,10.63
2023-04-01T02:48:12.529Z,10.57
2023-04-01T02:49:12.504Z,10.61
2023-04-01T02:50:12.551Z,10.67
2023-04-01T02:51:12.455Z,10.63
2023-04-01T02:52:12.396Z,10.68
2023-04-01T02:53:12.406Z,10.63
2023-04-01T02:54:12.394Z,10.53
2023-04-01T02:55:12.298Z,10.61
2023-04-01T02:56:12.324Z,10.64
2023-04-01T02:57:12.263Z,10.61
2023-04-01T02:58:12.198Z,10.57
2023-04-01T02:59:12.160Z,10.64
2023-04-01T03:00:12.179Z,10.64
2023-04-01T03:01:12.209Z,10.63
2023-04-01T03:02:12.129Z,10.63
2023-04-01T03:03:12.059Z,10.60
2023-04-01T03:04:12.000Z,10.63
2023-04-01T03:05:11.996Z,10.59
2023-04-01T03:06:11.930Z,10.61
2023-04-01T03:07:11.957Z,10.57
2023-04-01T03:08:11.867Z,10.54
2023-04-01T03:09:11.851Z,10.61
2023-04-01T03:10:11.800Z,10.63
2023-04-01T03:11:11.782Z,10.64
2023-04-01T03:12:11.742Z,10.61
2023-04-01T03:13:11.760Z,10.60
2023-04-01T03:14:11.670Z,10.67
2023-04-01T03:15:11.752Z,10.61
2023-04-01T03:16:11.646Z,10.60
2023-04-01T03:17:11.566Z,10.61
2023-04-01T03:18:11.548Z,10.61
2023-04-01T03:19:11.554Z,10.60
2023-04-01T03:20:11.475Z,10.60
2023-04-01T03:21:11.435Z,10.67
2023-04-01T03:22:11.409Z,10.61
2023-04-01T03:23:11.375Z,10.60
2023-04-01T03:24:11.345Z,10.61
2023-04-01T03:25:11.356Z,10.61
2023-04-01T03:26:11.267Z,10.63
2023-04-01T03:27:11.248Z,10.71
2023-04-01T03:28:11.220Z,10.61
2023-04-01T03:29:11.247Z,10.63
2023-04-01T03:30:11.234Z,10.54
2023-04-01T03:31:11.312Z,10.51
2023-04-01T03:32:11.069Z,10.68
2023-04-01T03:33:11.044Z,10.68
2023-04-01T03:34:11.119Z,10.59
2023-04-01T03:35:10.974Z,10.60
2023-04-01T03:36:10.982Z,10.53
2023-04-01T03:37:10.970Z,10.53
2023-04-01T03:38:10.871Z,10.49
2023-04-01T03:39:10.846Z,10.46
2023-04-01T03:40:10.815Z,10.40
2023-04-01T03:41:10.781Z,10.38
2023-04-01T03:42:10.769Z,10.49
2023-04-01T03:43:10.822Z,10.33
2023-04-01T03:44:10.690Z,10.31
2023-04-01T03:45:10.655Z,10.38
2023-04-01T03:46:10.688Z,10.23
2023-04-01T03:47:10.611Z,10.26
2023-04-01T03:48:10.697Z,10.28
2023-04-01T03:49:10.577Z,10.22
2023-04-01T03:50:10.473Z,10.22
2023-04-01T03:51:11.007Z,10.15
2023-04-01T03:52:10.422Z,10.13
2023-04-01T03:53:10.370Z,10.17
2023-04-01T03:54:10.343Z,10.15
2023-04-01T03:55:12.010Z,10.19
2023-04-01T03:56:10.289Z,10.05
2023-04-01T03:57:10.327Z,10.12
2023-04-01T03:58:10.211Z,10.17
2023-04-01T03:59:10.188Z,10.01
2023-04-01T04:00:10.208Z,10.02
2023-04-01T04:01:10.108Z,10.01
2023-04-01T04:02:10.111Z,10.05
2023-04-01T04:03:10.151Z,10.01
2023-04-01T04:04:10.073Z,10.01
2023-04-01T04:05:09.974Z,10.04
2023-04-01T04:06:10.019Z,10.04
2023-04-01T04:07:09.928Z,10.15
2023-04-01T04:08:09.886Z,10.15
2023-04-01T04:09:09.842Z,10.02
2023-04-01T04:10:09.828Z,10.13
2023-04-01T04:11:09.770Z,10.12
2023-04-01T04:12:09.805Z,10.13
2023-04-01T04:13:09.711Z,10.04
2023-04-01T04:14:09.685Z,10.04
2023-04-01T04:15:09.663Z,9.99
2023-04-01T04:16:09.661Z,10.02
2023-04-01T04:17:09.574Z,10.01
2023-04-01T04:18:09.609Z,10.01
2023-04-01T04:19:09.521Z,9.97
2023-04-01T04:20:09.483Z,9.95
2023-04-01T04:21:09.446Z,9.99
2023-04-01T04:22:09.426Z,9.99
2023-04-01T04:23:09.379Z,10.01
2023-04-01T04:24:09.419Z,9.89
2023-04-01T04:25:09.315Z,9.89
2023-04-01T04:26:09.302Z,9.99
2023-04-01T04:27:09.250Z,9.91
2023-04-01T04:28:09.218Z,9.94
2023-04-01T04:29:09.193Z,9.97
2023-04-01T04:30:09.217Z,9.84
2023-04-01T04:31:09.171Z,9.87
2023-04-01T04:32:09.077Z,9.89
2023-04-01T04:33:09.109Z,9.83
2023-04-01T04:34:09.026Z,9.83
2023-04-01T04:35:08.980Z,9.73
2023-04-01T04:36:09.029Z,9.74
2023-04-01T04:37:08.924Z,9.79
2023-04-01T04:38:08.885Z,9.59
2023-04-01T04:39:08.864Z,9.68
2023-04-01T04:40:08.813Z,9.61
2023-04-01T04:41:08.847Z,9.55
2023-04-01T04:42:08.752Z,9.59
2023-04-01T04:43:08.707Z,9.55
2023-04-01T04:44:08.671Z,9.46
2023-04-01T04:45:08.646Z,9.40
2023-04-01T04:46:08.649Z,9.39
2023-04-01T04:47:08.662Z,9.44
2023-04-01T04:48:08.601Z,9.40
2023-04-01T04:49:08.509Z,9.44
2023-04-01T04:50:08.497Z,9.41
2023-04-01T04:51:08.464Z,9.40
2023-04-01T04:52:08.409Z,9.43
2023-04-01T04:53:08.470Z,9.46
2023-04-01T04:54:08.337Z,9.41
2023-04-01T04:55:08.306Z,9.44
2023-04-01T04:56:08.279Z,9.47
2023-04-01T04:57:08.369Z,9.51
2023-04-01T04:58:08.203Z,9.55
2023-04-01T04:59:08.200Z,9.59
2023-04-01T05:00:08.140Z,9.54
2023-04-01T05:01:08.200Z,9.62
2023-04-01T05:02:08.084Z,9.64
2023-04-01T05:03:08.208Z,9.64
2023-04-01T05:04:08.012Z,9.65
2023-04-01T05:05:07.979Z,9.62
2023-04-01T05:06:07.938Z,9.68
2023-04-01T05:07:07.902Z,9.76
2023-04-01T05:08:07.920Z,9.84
2023-04-01T05:09:07.851Z,9.89
2023-04-01T05:10:07.825Z,9.94
2023-04-01T05:11:08.622Z,9.95
2023-04-01T05:12:07.753Z,10.07
2023-04-01T05:13:07.772Z,9.99
2023-04-01T05:14:07.682Z,10.13
2023-04-01T05:15:07.630Z,10.10
2023-04-01T05:16:07.608Z,10.19
2023-04-01T05:17:07.660Z,10.26
2023-04-01T05:18:07.578Z,10.26
2023-04-01T05:19:07.747Z,10.31
2023-04-01T05:20:07.475Z,10.46
2023-04-01T05:21:07.450Z,10.56
2023-04-01T05:22:07.435Z,10.54
2023-04-01T05:23:07.403Z,10.64
2023-04-01T05:24:07.396Z,10.63
2023-04-01T05:25:07.308Z,10.72
2023-04-01T05:26:07.273Z,10.78
2023-04-01T05:27:07.242Z,10.86
2023-04-01T05:28:07.206Z,10.87
2023-04-01T05:29:07.168Z,10.87
2023-04-01T05:30:07.196Z,10.93
2023-04-01T05:31:07.169Z,10.90
2023-04-01T05:32:07.068Z,10.94
2023-04-01T05:33:07.102Z,11.07
2023-04-01T05:34:07.021Z,11.14
2023-04-01T05:35:06.975Z,11.07
2023-04-01T05:36:07.011Z,11.04
2023-04-01T05:37:06.917Z,11.17
2023-04-01T05:38:08.145Z,11.07
2023-04-01T05:39:06.844Z,11.25
2023-04-01T05:40:06.812Z,11.23
2023-04-01T05:41:06.787Z,11.36
2023-04-01T05:42:06.801Z,11.45
2023-04-01T05:43:06.718Z,11.50
2023-04-01T05:44:06.681Z,11.63
2023-04-01T05:45:06.657Z,11.69
2023-04-01T05:46:06.631Z,11.69
2023-04-01T05:47:06.596Z,11.78
2023-04-01T05:48:06.682Z,11.91
2023-04-01T05:49:06.519Z,11.99
2023-04-01T05:50:06.494Z,11.97
2023-04-01T05:51:06.465Z,12.00
2023-04-01T05:52:06.420Z,12.12
2023-04-01T05:53:06.426Z,12.20
2023-04-01T05:54:06.432Z,12.22
2023-04-01T05:55:06.356Z,12.32
2023-04-01T05:56:06.299Z,12.31
2023-04-01T05:57:06.299Z,12.45
2023-04-01T05:58:06.251Z,12.46
2023-04-01T05:59:06.199Z,12.53
2023-04-01T06:00:06.229Z,12.60
2023-04-01T06:01:10.278Z,12.58
2023-04-01T06:02:06.140Z,12.65
2023-04-01T06:03:06.146Z,12.72
2023-04-01T06:04:06.180Z,12.70
2023-04-01T06:05:06.001Z,12.79
2023-04-01T06:06:06.034Z,12.87
2023-04-01T06:07:05.942Z,12.95
2023-04-01T06:08:05.911Z,12.98
2023-04-01T06:09:05.876Z,13.11
2023-04-01T06:10:05.857Z,13.18
2023-04-01T06:11:05.820Z,13.11
2023-04-01T06:12:05.844Z,13.12
2023-04-01T06:13:05.755Z,13.20
2023-04-01T06:14:05.732Z,13.16
2023-04-01T06:15:05.697Z,13.22
2023-04-01T06:16:05.668Z,13.23
2023-04-01T06:17:05.622Z,13.20
2023-04-01T06:18:05.723Z,13.31
2023-04-01T06:19:05.636Z,13.13
2023-04-01T06:20:05.555Z,13.19
2023-04-01T06:21:05.506Z,13.16
2023-04-01T06:22:05.486Z,13.27
2023-04-01T06:23:05.435Z,13.20
2023-04-01T06:24:05.461Z,13.19
2023-04-01T06:25:05.384Z,13.18
2023-04-01T06:26:05.350Z,13.19
2023-04-01T06:27:05.319Z,13.20
2023-04-01T06:28:07.168Z,13.16
2023-04-01T06:29:05.268Z,13.23
2023-04-01T06:30:05.274Z,13.20
2023-04-01T06:31:05.214Z,13.22
2023-04-01T06:32:05.261Z,13.20
2023-04-01T06:33:05.156Z,13.13
2023-04-01T06:34:05.099Z,13.08
2023-04-01T06:35:05.075Z,13.08
2023-04-01T06:36:05.144Z,13.11
2023-04-01T06:37:05.028Z,13.09
2023-04-01T06:38:04.977Z,13.05
2023-04-01T06:39:04.945Z,13.03
2023-04-01T06:40:04.928Z,13.03
2023-04-01T06:41:04.899Z,13.01
2023-04-01T06:42:04.910Z,12.94
2023-04-01T06:43:04.820Z,12.98
2023-04-01T06:44:04.814Z,13.00
2023-04-01T06:45:04.767Z,12.98
2023-04-01T06:46:04.755Z,13.00
2023-04-01T06:47:04.688Z,12.98
2023-04-01T06:48:04.790Z,13.08
2023-04-01T06:49:04.645Z,13.00
2023-04-01T06:50:04.601Z,13.00
2023-04-01T06:51:04.758Z,13.03
2023-04-01T06:52:04.544Z,12.94
2023-04-01T06:53:04.515Z,12.95
2023-04-01T06:54:04.525Z,12.98
2023-04-01T06:55:04.442Z,13.01
2023-04-01T06:56:04.413Z,13.05
2023-04-01T06:57:04.412Z,13.12
2023-04-01T06:58:04.350Z,13.03
2023-04-01T06:59:04.407Z,13.12
2023-04-01T07:00:04.286Z,13.13
2023-04-01T07:01:04.327Z,13.15
2023-04-01T07:02:04.229Z,13.23
2023-04-01T07:03:06.620Z,13.09
2023-04-01T07:04:04.192Z,13.15
2023-04-01T07:05:04.202Z,13.25
2023-04-01T07:06:04.093Z,13.25
2023-04-01T07:07:04.084Z,13.15
2023-04-01T07:08:04.039Z,13.27
2023-04-01T07:09:05.881Z,13.30
2023-04-01T07:10:04.049Z,13.35
2023-04-01T07:11:03.947Z,13.47
2023-04-01T07:12:03.903Z,13.50
2023-04-01T07:13:03.873Z,13.59
2023-04-01T07:14:03.842Z,13.63
2023-04-01T07:15:03.824Z,13.72
2023-04-01T07:16:03.835Z,13.71
2023-04-01T07:17:03.800Z,13.87
2023-04-01T07:18:03.738Z,13.90
2023-04-01T07:19:03.685Z,14.03
2023-04-01T07:20:03.696Z,14.08
2023-04-01T07:21:03.618Z,14.17
2023-04-01T07:22:03.652Z,14.29
2023-04-01T07:23:03.705Z,14.26
2023-04-01T07:24:03.539Z,14.23
2023-04-01T07:25:03.496Z,14.17
2023-04-01T07:26:03.470Z,14.22
2023-04-01T07:27:03.440Z,14.30
2023-04-01T07:28:03.466Z,14.37
2023-04-01T07:29:03.409Z,14.30
2023-04-01T07:30:03.350Z,14.37
2023-04-01T07:31:03.324Z,14.33
2023-04-01T07:32:03.278Z,14.48
2023-04-01T07:33:03.258Z,14.58
2023-04-01T07:34:03.299Z,14.65
2023-04-01T07:35:03.196Z,14.68
2023-04-01T07:36:03.201Z,14.69
2023-04-01T07:37:03.151Z,14.72
2023-04-01T07:38:03.109Z,14.63
2023-04-01T07:39:03.095Z,14.70
2023-04-01T07:40:03.106Z,14.86
2023-04-01T07:41:03.020Z,14.85
2023-04-01T07:42:02.987Z,14.97
2023-04-01T07:43:03.000Z,15.00
2023-04-01T07:44:02.952Z,15.06
2023-04-01T07:45:02.935Z,15.06
2023-04-01T07:46:03.030Z,15.07
2023-04-01T07:47:02.864Z,15.14
2023-04-01T07:48:02.856Z,15.18
2023-04-01T07:49:02.779Z,15.04
2023-04-01T07:50:02.755Z,15.11
2023-04-01T07:51:02.718Z,15.11
2023-04-01T07:52:02.771Z,15.19
2023-04-01T07:53:02.718Z,15.22
2023-04-01T07:54:02.624Z,15.35
2023-04-01T07:55:02.614Z,15.39
2023-04-01T07:56:02.564Z,15.54
2023-04-01T07:57:02.587Z,15.61
2023-04-01T07:58:02.566Z,15.55
2023-04-01T07:59:02.476Z,15.46
2023-04-01T08:00:02.445Z,15.37
2023-04-01T08:01:02.412Z,15.21
2023-04-01T08:02:02.404Z,15.22
2023-04-01T08:03:02.517Z,15.33
2023-04-01T08:04:02.441Z,15.44
2023-04-01T08:05:02.366Z,15.46
2023-04-01T08:06:02.270Z,15.51
2023-04-01T08:07:02.245Z,15.55
2023-04-01T08:08:02.220Z,15.68
2023-04-01T08:09:02.234Z,15.72
2023-04-01T08:10:02.162Z,15.77
2023-04-01T08:11:02.133Z,15.80
2023-04-01T08:12:02.093Z,15.90
2023-04-01T08:13:02.060Z,15.97
2023-04-01T08:14:02.042Z,16.02
2023-04-01T08:15:02.075Z,16.12
2023-04-01T08:16:02.014Z,16.17
2023-04-01T08:17:01.965Z,16.29
2023-04-01T08:18:01.975Z,16.23
2023-04-01T08:19:01.890Z,16.16
2023-04-01T08:20:01.869Z,16.23
2023-04-01T08:21:01.891Z,16.16
2023-04-01T08:22:01.807Z,16.10
2023-04-01T08:23:01.780Z,16.10
2023-04-01T08:24:01.754Z,16.17
2023-04-01T08:25:01.734Z,16.01
2023-04-01T08:26:01.701Z,15.90
2023-04-01T08:27:01.724Z,15.76
2023-04-01T08:28:01.632Z,15.64
2023-04-01T08:29:01.597Z,15.67
2023-04-01T08:30:01.585Z,15.58
2023-04-01T08:31:01.546Z,15.52
2023-04-01T08:32:01.544Z,15.44
2023-04-01T08:33:01.652Z,15.35
2023-04-01T08:34:01.465Z,15.09
2023-04-01T08:35:01.434Z,15.11
2023-04-01T08:36:01.435Z,14.96
2023-04-01T08:37:01.372Z,14.89
2023-04-01T08:38:01.334Z,14.78
2023-04-01T08:39:01.364Z,14.65
2023-04-01T08:40:01.297Z,14.60
2023-04-01T08:41:01.254Z,14.45
2023-04-01T08:42:01.236Z,14.45
2023-04-01T08:43:01.190Z,14.50
2023-04-01T08:44:01.191Z,14.29
2023-04-01T08:45:01.737Z,14.35
2023-04-01T08:46:01.166Z,14.11
2023-04-01T08:47:01.109Z,14.08
2023-04-01T08:48:01.086Z,14.03
2023-04-01T08:49:01.014Z,13.93
2023-04-01T08:50:01.006Z,13.92
2023-04-01T08:51:01.020Z,13.90
2023-04-01T08:52:00.933Z,13.86
2023-04-01T08:53:00.895Z,13.75
2023-04-01T08:54:00.863Z,13.83
2023-04-01T08:55:00.844Z,13.89
2023-04-01T08:56:00.818Z,13.93
2023-04-01T08:57:00.886Z,13.86
2023-04-01T08:58:00.751Z,13.83
2023-04-01T08:59:00.727Z,13.74
2023-04-01T09:00:00.699Z,13.81
2023-04-01T09:01:00.652Z,13.74
2023-04-01T09:02:00.648Z,13.77
2023-04-01T09:03:00.808Z,13.75
2023-04-01T09:04:00.692Z,13.78
2023-04-01T09:05:00.547Z,13.87
2023-04-01T09:06:00.508Z,13.89
2023-04-01T09:07:00.489Z,13.87
2023-04-01T09:08:00.452Z,13.85
2023-04-01T09:09:00.493Z,13.89
2023-04-01T09:10:00.394Z,13.92
2023-04-01T09:11:00.366Z,13.87
2023-04-01T09:12:00.342Z,13.86
2023-04-01T09:13:00.297Z,13.92
2023-04-01T09:14:00.268Z,13.87
2023-04-01T09:15:00.301Z,13.95
2023-04-01T09:16:00.257Z,14.03
2023-04-01T09:17:00.176Z,14.08
2023-04-01T09:18:00.248Z,14.05
2023-04-01T09:19:00.118Z,13.95
2023-04-01T09:20:00.111Z,13.95
2023-04-01T09:21:00.111Z,13.86
2023-04-01T09:22:00.025Z,13.85
2023-04-01T09:22:59.984Z,13.83
2023-04-01T09:23:59.955Z,13.99
2023-04-01T09:24:59.934Z,14.10
2023-04-01T09:25:59.948Z,14.22
2023-04-01T09:26:59.962Z,14.15
2023-04-01T09:27:59.850Z,14.25
2023-04-01T09:28:59.795Z,14.32
2023-04-01T09:29:59.777Z,14.40
2023-04-01T09:30:59.769Z,14.37
2023-04-01T09:31:59.768Z,14.44
2023-04-01T09:32:59.733Z,14.44
2023-04-01T09:33:59.656Z,14.54
2023-04-01T09:34:59.616Z,14.32
2023-04-01T09:35:59.623Z,14.25
2023-04-01T09:36:59.569Z,14.12
2023-04-01T09:37:59.609Z,14.17
2023-04-01T09:38:59.501Z,14.14
2023-04-01T09:39:59.461Z,14.25
2023-04-01T09:40:59.442Z,14.18
2023-04-01T09:41:59.414Z,14.30
2023-04-01T09:42:59.378Z,14.30
2023-04-01T09:43:59.409Z,14.28
2023-04-01T09:44:59.330Z,14.33
2023-04-01T09:45:59.334Z,14.29
2023-04-01T09:46:59.261Z,14.35
2023-04-01T09:47:59.351Z,14.37
2023-04-01T09:48:59.216Z,14.33
2023-04-01T09:49:59.221Z,14.33
2023-04-01T09:50:59.244Z,14.17
2023-04-01T09:51:59.118Z,14.26
2023-04-01T09:52:59.090Z,14.28
2023-04-01T09:53:59.045Z,14.14
2023-04-01T09:54:59.012Z,14.10
2023-04-01T09:55:58.981Z,14.18
2023-04-01T09:56:59.044Z,14.18
2023-04-01T09:57:58.919Z,14.20
2023-04-01T09:58:58.895Z,14.28
2023-04-01T09:59:58.867Z,14.30
2023-04-01T10:00:58.847Z,14.28
2023-04-01T10:01:58.868Z,14.28
2023-04-01T10:02:58.823Z,14.35
2023-04-01T10:03:58.744Z,14.44
2023-04-01T10:04:58.707Z,14.44
2023-04-01T10:05:58.723Z,14.48
2023-04-01T10:06:58.692Z,14.68
2023-04-01T10:07:58.618Z,14.96
2023-04-01T10:08:58.585Z,14.99
2023-04-01T10:09:58.556Z,14.69
2023-04-01T10:10:58.515Z,14.48
2023-04-01T10:11:58.500Z,14.47
2023-04-01T10:12:58.551Z,14.36
2023-04-01T10:13:58.464Z,14.30
2023-04-01T10:14:58.413Z,14.04
2023-04-01T10:15:58.390Z,13.95
2023-04-01T10:16:58.336Z,13.92
2023-04-01T10:17:58.334Z,13.93
2023-04-01T10:18:58.349Z,13.68
2023-04-01T10:19:58.257Z,13.49
2023-04-01T10:20:58.220Z,13.54
2023-04-01T10:21:58.212Z,13.44
2023-04-01T10:22:58.167Z,13.42
2023-04-01T10:23:58.128Z,13.37
2023-04-01T10:24:58.172Z,13.42
2023-04-01T10:25:58.072Z,13.47
2023-04-01T10:26:58.032Z,13.20
2023-04-01T10:27:58.007Z,13.30
2023-04-01T10:28:57.971Z,13.62
2023-04-01T10:29:58.081Z,13.79
2023-04-01T10:30:57.910Z,13.74
2023-04-01T10:31:57.932Z,13.59
2023-04-01T10:32:57.883Z,13.65
2023-04-01T10:33:57.828Z,13.52
2023-04-01T10:34:57.794Z,13.27
2023-04-01T10:35:57.859Z,13.23
2023-04-01T10:36:57.724Z,13.31
2023-04-01T10:37:57.692Z,13.25
2023-04-01T10:38:57.665Z,13.22
2023-04-01T10:39:57.632Z,13.18
2023-04-01T10:40:57.604Z,13.46
2023-04-01T10:41:57.638Z,13.47
2023-04-01T10:42:57.540Z,13.62
2023-04-01T10:43:57.512Z,13.25
2023-04-01T10:44:57.484Z,13.33
2023-04-01T10:45:57.477Z,13.15
2023-04-01T10:46:57.425Z,13.25
2023-04-01T10:47:57.520Z,13.28
2023-04-01T10:48:57.369Z,13.16
2023-04-01T10:49:57.320Z,13.11
2023-04-01T10:50:57.296Z,13.18
2023-04-01T10:51:57.269Z,13.25
2023-04-01T10:52:57.244Z,13.37
2023-04-01T10:53:57.263Z,13.22
2023-04-01T10:54:57.189Z,13.39
2023-04-01T10:55:57.193Z,13.35
2023-04-01T10:56:57.135Z,13.27
2023-04-01T10:57:57.090Z,12.94
2023-04-01T10:58:57.061Z,13.12
2023-04-01T10:59:57.078Z,13.30
2023-04-01T11:00:57.021Z,13.35
2023-04-01T11:02:10.049Z,13.46
2023-04-01T11:02:56.986Z,13.67
2023-04-01T11:03:57.071Z,13.93
2023-04-01T11:04:56.876Z,13.90
2023-04-01T11:05:56.925Z,13.92
2023-04-01T11:06:56.818Z,13.86
2023-04-01T11:08:05.439Z,13.86
2023-04-01T11:08:56.760Z,13.71
2023-04-01T11:09:56.725Z,13.62
2023-04-01T11:10:56.688Z,13.67
2023-04-01T11:11:56.727Z,13.28
2023-04-01T11:12:56.725Z,13.25
2023-04-01T11:13:56.597Z,13.12
2023-04-01T11:14:56.568Z,13.13
2023-04-01T11:15:56.587Z,13.37
2023-04-01T11:16:56.552Z,13.44
2023-04-01T11:17:56.519Z,13.37
2023-04-01T11:18:56.440Z,13.23
2023-04-01T11:19:56.411Z,13.04
2023-04-01T11:20:56.376Z,12.80
2023-04-01T11:21:56.405Z,12.73
2023-04-01T11:22:56.321Z,12.90
2023-04-01T11:24:04.973Z,12.93
2023-04-01T11:24:57.246Z,12.94
2023-04-01T11:25:56.222Z,12.98
2023-04-01T11:26:56.210Z,13.01
2023-04-01T11:27:56.220Z,13.09
2023-04-01T11:28:56.166Z,12.87
2023-04-01T11:30:00.227Z,12.85
2023-04-01T11:30:56.090Z,12.68
2023-04-01T11:31:56.189Z,12.47
2023-04-01T11:32:56.175Z,12.27
2023-04-01T11:33:56.044Z,12.32
2023-04-01T11:34:55.943Z,12.04
2023-04-01T11:35:55.933Z,12.13
2023-04-01T11:36:55.918Z,12.09
2023-04-01T11:37:55.853Z,12.21
2023-04-01T11:38:55.845Z,12.22
2023-04-01T11:39:58.123Z,12.18
2023-04-01T11:40:55.772Z,12.18
2023-04-01T11:41:55.731Z,12.15
2023-04-01T11:42:55.704Z,12.17
2023-04-01T11:43:55.664Z,12.18
2023-04-01T11:44:55.633Z,12.25
2023-04-01T11:45:55.684Z,12.09
2023-04-01T11:46:55.622Z,11.99
2023-04-01T11:47:55.598Z,11.73
2023-04-01T11:48:55.517Z,11.75
2023-04-01T11:49:55.482Z,11.81
2023-04-01T11:50:55.470Z,11.83
2023-04-01T11:51:55.479Z,11.68
2023-04-01T11:52:55.391Z,11.48
2023-04-01T11:53:55.341Z,11.45
2023-04-01T11:54:55.318Z,11.50
2023-04-01T11:55:55.326Z,11.52
2023-04-01T11:56:55.261Z,11.60
2023-04-01T11:57:55.287Z,11.66
2023-04-01T11:58:55.186Z,11.66
2023-04-01T11:59:55.150Z,11.69
2023-04-01T12:00:55.160Z,11.73
2023-04-01T12:01:55.095Z,11.52
2023-04-01T12:02:55.126Z,11.60
2023-04-01T12:03:55.284Z,11.47
2023-04-01T12:04:55.080Z,11.57
2023-04-01T12:05:54.987Z,11.52
2023-04-01T12:06:54.929Z,11.36
2023-04-01T12:07:54.905Z,11.27
2023-04-01T12:08:54.892Z,11.23
2023-04-01T12:09:54.897Z,11.26
2023-04-01T12:10:54.805Z,11.02
2023-04-01T12:11:55.771Z,10.99
2023-04-01T12:13:01.264Z,10.92
2023-04-01T12:13:54.704Z,11.04
2023-04-01T12:14:54.691Z,11.04
2023-04-01T12:15:54.727Z,11.05
2023-04-01T12:16:54.612Z,10.92
2023-04-01T12:17:54.605Z,10.92
2023-04-01T12:18:54.541Z,10.92
2023-04-01T12:19:54.524Z,10.86
2023-04-01T12:20:54.478Z,10.87
2023-04-01T12:21:54.515Z,10.86
2023-04-01T12:22:54.416Z,10.86
2023-04-01T12:23:54.381Z,10.89
2023-04-01T12:24:54.352Z,10.75
2023-04-01T12:25:54.315Z,10.75
2023-04-01T12:26:54.296Z,10.71
2023-04-01T12:27:54.321Z,10.79
2023-04-01T12:28:54.240Z,10.86
2023-04-01T12:29:54.187Z,10.82
2023-04-01T12:30:54.178Z,10.76
2023-04-01T12:31:54.148Z,10.67
2023-04-01T12:32:54.157Z,10.76
2023-04-01T12:33:54.117Z,10.61
2023-04-01T12:34:54.024Z,10.69
2023-04-01T12:35:54.038Z,10.69
2023-04-01T12:36:53.958Z,10.71
2023-04-01T12:37:53.982Z,10.78
2023-04-01T12:38:53.907Z,10.76
2023-04-01T12:39:53.856Z,10.75
2023-04-01T12:40:53.835Z,10.86
2023-04-01T12:41:53.794Z,10.89
2023-04-01T12:42:53.824Z,10.79
2023-04-01T12:43:53.734Z,10.69
2023-04-01T12:44:53.698Z,10.68
2023-04-01T12:45:53.694Z,10.78
2023-04-01T12:46:53.637Z,10.86
2023-04-01T12:47:53.717Z,10.81
2023-04-01T12:48:54.896Z,10.76
2023-04-01T12:49:53.539Z,10.72
2023-04-01T12:50:53.498Z,10.72
2023-04-01T12:51:53.475Z,10.67
2023-04-01T12:52:53.430Z,10.63
2023-04-01T12:53:53.398Z,10.68